sensor_id;sensor_type;location;lat;lon;timestamp;temperature;humidity
65460;DHT22;52058;49.822;6.754;2023-07-31T00:01:38;19.29;71.41
65460;DHT22;52058;49.822;6.754;2023-07-31T00:04:05;19.26;71.44
65460;DHT22;52058;49.822;6.754;2023-07-31T00:06:31;19.24;71.76
65460;DHT22;52058;49.822;6.754;2023-07-31T00:08:58;19.26;71.74
65460;DHT22;52058;49.822;6.754;2023-07-31T00:11:26;19.27;71.81
65460;DHT22;52058;49.822;6.754;2023-07-31T00:13:53;19.27;72.00
65460;DHT22;52058;49.822;6.754;2023-07-31T00:16:19;19.24;71.86
65460;DHT22;52058;49.822;6.754;2023-07-31T00:18:46;19.23;71.90
65460;DHT22;52058;49.822;6.754;2023-07-31T00:21:13;19.24;72.11
65460;DHT22;52058;49.822;6.754;2023-07-31T00:23:39;19.22;72.02
65460;DHT22;52058;49.822;6.754;2023-07-31T00:26:06;19.24;72.10
65460;DHT22;52058;49.822;6.754;2023-07-31T00:28:34;19.24;72.21
65460;DHT22;52058;49.822;6.754;2023-07-31T00:31:01;19.18;74.24
65460;DHT22;52058;49.822;6.754;2023-07-31T00:33:29;19.01;74.99
65460;DHT22;52058;49.822;6.754;2023-07-31T00:35:56;18.99;74.53
65460;DHT22;52058;49.822;6.754;2023-07-31T00:38:22;18.99;74.98
65460;DHT22;52058;49.822;6.754;2023-07-31T00:40:49;18.96;75.60
65460;DHT22;52058;49.822;6.754;2023-07-31T00:43:15;18.94;75.96
65460;DHT22;52058;49.822;6.754;2023-07-31T00:45:43;18.91;76.14
65460;DHT22;52058;49.822;6.754;2023-07-31T00:48:10;18.91;75.94
65460;DHT22;52058;49.822;6.754;2023-07-31T00:50:37;18.89;76.09
65460;DHT22;52058;49.822;6.754;2023-07-31T00:53:05;18.91;76.09
65460;DHT22;52058;49.822;6.754;2023-07-31T00:55:32;18.88;76.43
65460;DHT22;52058;49.822;6.754;2023-07-31T00:57:58;18.87;76.73
65460;DHT22;52058;49.822;6.754;2023-07-31T01:00:25;18.84;76.92
65460;DHT22;52058;49.822;6.754;2023-07-31T01:02:53;18.79;77.30
65460;DHT22;52058;49.822;6.754;2023-07-31T01:05:25;18.81;77.53
65460;DHT22;52058;49.822;6.754;2023-07-31T01:07:59;18.79;77.89
65460;DHT22;52058;49.822;6.754;2023-07-31T01:10:32;18.79;78.07
65460;DHT22;52058;49.822;6.754;2023-07-31T01:13:03;18.78;78.24
65460;DHT22;52058;49.822;6.754;2023-07-31T01:15:29;18.76;78.28
65460;DHT22;52058;49.822;6.754;2023-07-31T01:17:57;18.75;78.46
65460;DHT22;52058;49.822;6.754;2023-07-31T01:20:26;18.72;78.73
65460;DHT22;52058;49.822;6.754;2023-07-31T01:23:23;18.71;78.62
65460;DHT22;52058;49.822;6.754;2023-07-31T01:26:00;18.72;78.65
65460;DHT22;52058;49.822;6.754;2023-07-31T01:28:34;18.72;78.55
65460;DHT22;52058;49.822;6.754;2023-07-31T01:31:06;18.71;78.52
65460;DHT22;52058;49.822;6.754;2023-07-31T01:33:34;18.71;78.55
65460;DHT22;52058;49.822;6.754;2023-07-31T01:36:01;18.72;78.80
65460;DHT22;52058;49.822;6.754;2023-07-31T01:38:28;18.72;78.93
65460;DHT22;52058;49.822;6.754;2023-07-31T01:40:55;18.71;78.89
65460;DHT22;52058;49.822;6.754;2023-07-31T01:43:22;18.68;78.94
65460;DHT22;52058;49.822;6.754;2023-07-31T01:45:49;18.69;79.20
65460;DHT22;52058;49.822;6.754;2023-07-31T01:48:16;18.68;79.34
65460;DHT22;52058;49.822;6.754;2023-07-31T01:50:42;18.67;79.43
65460;DHT22;52058;49.822;6.754;2023-07-31T01:53:09;18.61;79.47
65460;DHT22;52058;49.822;6.754;2023-07-31T01:55:37;18.61;79.54
65460;DHT22;52058;49.822;6.754;2023-07-31T01:58:05;18.60;79.61
65460;DHT22;52058;49.822;6.754;2023-07-31T02:00:31;18.60;79.55
65460;DHT22;52058;49.822;6.754;2023-07-31T02:02:59;18.61;79.41
65460;DHT22;52058;49.822;6.754;2023-07-31T02:05:25;18.61;79.52
65460;DHT22;52058;49.822;6.754;2023-07-31T02:07:52;18.62;79.33
65460;DHT22;52058;49.822;6.754;2023-07-31T02:10:18;18.60;79.48
65460;DHT22;52058;49.822;6.754;2023-07-31T02:12:45;18.61;79.40
65460;DHT22;52058;49.822;6.754;2023-07-31T02:15:13;18.58;79.51
65460;DHT22;52058;49.822;6.754;2023-07-31T02:17:40;18.60;79.57
65460;DHT22;52058;49.822;6.754;2023-07-31T02:20:08;18.57;79.50
65460;DHT22;52058;49.822;6.754;2023-07-31T02:22:34;18.55;79.43
65460;DHT22;52058;49.822;6.754;2023-07-31T02:25:01;18.57;79.22
65460;DHT22;52058;49.822;6.754;2023-07-31T02:27:27;18.57;78.90
65460;DHT22;52058;49.822;6.754;2023-07-31T02:29:54;18.55;78.60
65460;DHT22;52058;49.822;6.754;2023-07-31T02:32:22;18.52;78.08
65460;DHT22;52058;49.822;6.754;2023-07-31T02:34:49;18.52;77.67
65460;DHT22;52058;49.822;6.754;2023-07-31T02:37:15;18.52;76.84
65460;DHT22;52058;49.822;6.754;2023-07-31T02:39:42;18.52;76.50
65460;DHT22;52058;49.822;6.754;2023-07-31T02:42:09;18.50;76.23
65460;DHT22;52058;49.822;6.754;2023-07-31T02:44:35;18.50;76.31
65460;DHT22;52058;49.822;6.754;2023-07-31T02:47:02;18.45;76.20
65460;DHT22;52058;49.822;6.754;2023-07-31T02:49:31;18.44;76.24
65460;DHT22;52058;49.822;6.754;2023-07-31T02:51:57;18.41;76.32
65460;DHT22;52058;49.822;6.754;2023-07-31T02:54:24;18.41;76.25
65460;DHT22;52058;49.822;6.754;2023-07-31T02:56:50;18.38;76.28
65460;DHT22;52058;49.822;6.754;2023-07-31T02:59:17;18.40;76.24
65460;DHT22;52058;49.822;6.754;2023-07-31T03:01:44;18.38;76.13
65460;DHT22;52058;49.822;6.754;2023-07-31T03:04:10;18.37;76.30
65460;DHT22;52058;49.822;6.754;2023-07-31T03:06:38;18.41;76.57
65460;DHT22;52058;49.822;6.754;2023-07-31T03:09:05;18.34;76.39
65460;DHT22;52058;49.822;6.754;2023-07-31T03:11:32;18.29;76.56
65460;DHT22;52058;49.822;6.754;2023-07-31T03:13:58;18.23;76.57
65460;DHT22;52058;49.822;6.754;2023-07-31T03:16:25;18.23;76.77
65460;DHT22;52058;49.822;6.754;2023-07-31T03:18:51;18.16;76.91
65460;DHT22;52058;49.822;6.754;2023-07-31T03:21:18;18.13;77.00
65460;DHT22;52058;49.822;6.754;2023-07-31T03:23:46;18.07;77.10
65460;DHT22;52058;49.822;6.754;2023-07-31T03:26:12;18.09;76.89
65460;DHT22;52058;49.822;6.754;2023-07-31T03:28:39;18.12;77.30
65460;DHT22;52058;49.822;6.754;2023-07-31T03:31:06;18.10;77.10
65460;DHT22;52058;49.822;6.754;2023-07-31T03:33:33;18.10;77.13
65460;DHT22;52058;49.822;6.754;2023-07-31T03:36:00;18.09;76.97
65460;DHT22;52058;49.822;6.754;2023-07-31T03:38:27;18.07;77.23
65460;DHT22;52058;49.822;6.754;2023-07-31T03:40:55;18.10;77.26
65460;DHT22;52058;49.822;6.754;2023-07-31T03:43:21;18.10;77.27
65460;DHT22;52058;49.822;6.754;2023-07-31T03:45:48;18.07;77.18
65460;DHT22;52058;49.822;6.754;2023-07-31T03:48:15;18.09;77.25
65460;DHT22;52058;49.822;6.754;2023-07-31T03:50:42;18.07;77.35
65460;DHT22;52058;49.822;6.754;2023-07-31T03:53:09;18.04;77.47
65460;DHT22;52058;49.822;6.754;2023-07-31T03:55:35;18.03;77.54
65460;DHT22;52058;49.822;6.754;2023-07-31T03:58:03;17.99;77.65
65460;DHT22;52058;49.822;6.754;2023-07-31T04:00:30;18.00;77.94
65460;DHT22;52058;49.822;6.754;2023-07-31T04:02:57;17.93;78.09
65460;DHT22;52058;49.822;6.754;2023-07-31T04:05:23;17.92;78.48
65460;DHT22;52058;49.822;6.754;2023-07-31T04:07:50;17.86;78.41
65460;DHT22;52058;49.822;6.754;2023-07-31T04:10:16;17.86;78.67
65460;DHT22;52058;49.822;6.754;2023-07-31T04:12:43;17.85;78.64
65460;DHT22;52058;49.822;6.754;2023-07-31T04:15:11;17.87;78.61
65460;DHT22;52058;49.822;6.754;2023-07-31T04:17:38;17.86;78.53
65460;DHT22;52058;49.822;6.754;2023-07-31T04:20:05;17.82;78.70
65460;DHT22;52058;49.822;6.754;2023-07-31T04:22:32;17.81;78.66
65460;DHT22;52058;49.822;6.754;2023-07-31T04:24:59;17.76;78.85
65460;DHT22;52058;49.822;6.754;2023-07-31T04:27:25;17.75;78.93
65460;DHT22;52058;49.822;6.754;2023-07-31T04:29:52;17.72;78.82
65460;DHT22;52058;49.822;6.754;2023-07-31T04:32:20;17.72;79.00
65460;DHT22;52058;49.822;6.754;2023-07-31T04:34:46;17.72;78.97
65460;DHT22;52058;49.822;6.754;2023-07-31T04:37:13;17.72;78.82
65460;DHT22;52058;49.822;6.754;2023-07-31T04:39:39;17.76;78.82
65460;DHT22;52058;49.822;6.754;2023-07-31T04:42:06;17.78;78.84
65460;DHT22;52058;49.822;6.754;2023-07-31T04:44:33;17.79;78.74
65460;DHT22;52058;49.822;6.754;2023-07-31T04:46:59;17.83;78.93
65460;DHT22;52058;49.822;6.754;2023-07-31T04:49:28;17.83;78.80
65460;DHT22;52058;49.822;6.754;2023-07-31T04:51:55;17.83;78.86
65460;DHT22;52058;49.822;6.754;2023-07-31T04:54:21;17.85;78.74
65460;DHT22;52058;49.822;6.754;2023-07-31T04:56:48;17.86;78.83
65460;DHT22;52058;49.822;6.754;2023-07-31T04:59:14;17.86;78.80
65460;DHT22;52058;49.822;6.754;2023-07-31T05:01:41;17.89;78.90
65460;DHT22;52058;49.822;6.754;2023-07-31T05:04:08;17.89;78.73
65460;DHT22;52058;49.822;6.754;2023-07-31T05:06:36;17.83;78.70
65460;DHT22;52058;49.822;6.754;2023-07-31T05:09:03;17.81;79.17
65460;DHT22;52058;49.822;6.754;2023-07-31T05:11:29;17.79;78.92
65460;DHT22;52058;49.822;6.754;2023-07-31T05:13:56;17.72;79.31
65460;DHT22;52058;49.822;6.754;2023-07-31T05:16:22;17.73;79.26
65460;DHT22;52058;49.822;6.754;2023-07-31T05:18:49;17.73;79.26
65460;DHT22;52058;49.822;6.754;2023-07-31T05:21:15;17.76;79.31
65460;DHT22;52058;49.822;6.754;2023-07-31T05:23:43;17.71;79.48
65460;DHT22;52058;49.822;6.754;2023-07-31T05:26:10;17.73;79.88
65460;DHT22;52058;49.822;6.754;2023-07-31T05:28:37;17.75;79.55
65460;DHT22;52058;49.822;6.754;2023-07-31T05:31:04;17.75;79.66
65460;DHT22;52058;49.822;6.754;2023-07-31T05:33:32;17.76;79.60
65460;DHT22;52058;49.822;6.754;2023-07-31T05:35:59;17.73;79.75
65460;DHT22;52058;49.822;6.754;2023-07-31T05:38:25;17.76;80.09
65460;DHT22;52058;49.822;6.754;2023-07-31T05:40:53;17.76;79.86
65460;DHT22;52058;49.822;6.754;2023-07-31T05:43:20;17.82;79.77
65460;DHT22;52058;49.822;6.754;2023-07-31T05:45:47;17.89;80.05
65460;DHT22;52058;49.822;6.754;2023-07-31T05:48:13;17.96;79.95
65460;DHT22;52058;49.822;6.754;2023-07-31T05:50:40;17.99;79.68
65460;DHT22;52058;49.822;6.754;2023-07-31T05:53:07;18.10;79.69
65460;DHT22;52058;49.822;6.754;2023-07-31T05:55:34;18.13;79.15
65460;DHT22;52058;49.822;6.754;2023-07-31T05:58:01;18.20;79.08
65460;DHT22;52058;49.822;6.754;2023-07-31T06:00:28;18.33;78.76
65460;DHT22;52058;49.822;6.754;2023-07-31T06:02:55;18.45;78.52
65460;DHT22;52058;49.822;6.754;2023-07-31T06:05:21;18.45;78.64
65460;DHT22;52058;49.822;6.754;2023-07-31T06:07:48;18.44;78.72
65460;DHT22;52058;49.822;6.754;2023-07-31T06:10:15;18.38;78.57
65460;DHT22;52058;49.822;6.754;2023-07-31T06:12:41;18.36;78.49
65460;DHT22;52058;49.822;6.754;2023-07-31T06:15:10;18.37;78.59
65460;DHT22;52058;49.822;6.754;2023-07-31T06:17:36;18.37;78.62
65460;DHT22;52058;49.822;6.754;2023-07-31T06:20:04;18.33;78.77
65460;DHT22;52058;49.822;6.754;2023-07-31T06:22:31;18.43;78.82
65460;DHT22;52058;49.822;6.754;2023-07-31T06:24:57;18.55;78.45
65460;DHT22;52058;49.822;6.754;2023-07-31T06:27:24;18.76;78.00
65460;DHT22;52058;49.822;6.754;2023-07-31T06:29:51;18.89;77.51
65460;DHT22;52058;49.822;6.754;2023-07-31T06:32:19;18.92;77.21
65460;DHT22;52058;49.822;6.754;2023-07-31T06:34:45;19.01;76.89
65460;DHT22;52058;49.822;6.754;2023-07-31T06:37:12;19.05;76.72
65460;DHT22;52058;49.822;6.754;2023-07-31T06:39:39;19.15;76.60
65460;DHT22;52058;49.822;6.754;2023-07-31T06:42:06;19.24;76.64
65460;DHT22;52058;49.822;6.754;2023-07-31T06:44:32;19.29;76.56
65460;DHT22;52058;49.822;6.754;2023-07-31T06:46:59;19.39;76.25
65460;DHT22;52058;49.822;6.754;2023-07-31T06:49:27;19.49;75.67
65460;DHT22;52058;49.822;6.754;2023-07-31T06:51:53;19.47;75.84
65460;DHT22;52058;49.822;6.754;2023-07-31T06:54:20;19.39;76.11
65460;DHT22;52058;49.822;6.754;2023-07-31T06:56:47;19.41;76.06
65460;DHT22;52058;49.822;6.754;2023-07-31T06:59:13;19.45;75.86
65460;DHT22;52058;49.822;6.754;2023-07-31T07:01:40;19.56;75.71
65460;DHT22;52058;49.822;6.754;2023-07-31T07:04:06;19.68;75.43
65460;DHT22;52058;49.822;6.754;2023-07-31T07:06:34;19.66;75.34
65460;DHT22;52058;49.822;6.754;2023-07-31T07:09:01;19.63;75.59
65460;DHT22;52058;49.822;6.754;2023-07-31T07:11:28;19.66;75.24
65460;DHT22;52058;49.822;6.754;2023-07-31T07:13:55;19.85;75.14
65460;DHT22;52058;49.822;6.754;2023-07-31T07:16:22;20.05;74.59
65460;DHT22;52058;49.822;6.754;2023-07-31T07:18:48;19.87;74.45
65460;DHT22;52058;49.822;6.754;2023-07-31T07:21:15;19.85;74.61
65460;DHT22;52058;49.822;6.754;2023-07-31T07:23:44;19.77;74.93
65460;DHT22;52058;49.822;6.754;2023-07-31T07:26:11;19.81;74.82
65460;DHT22;52058;49.822;6.754;2023-07-31T07:28:37;19.78;74.44
65460;DHT22;52058;49.822;6.754;2023-07-31T07:31:04;19.85;74.29
65460;DHT22;52058;49.822;6.754;2023-07-31T07:33:30;19.89;73.84
65460;DHT22;52058;49.822;6.754;2023-07-31T07:36:00;20.02;74.10
65460;DHT22;52058;49.822;6.754;2023-07-31T07:38:26;20.09;74.08
65460;DHT22;52058;49.822;6.754;2023-07-31T07:40:54;20.25;73.29
65460;DHT22;52058;49.822;6.754;2023-07-31T07:43:21;20.17;73.40
65460;DHT22;52058;49.822;6.754;2023-07-31T07:45:47;20.29;73.16
65460;DHT22;52058;49.822;6.754;2023-07-31T07:48:14;20.32;72.86
65460;DHT22;52058;49.822;6.754;2023-07-31T07:50:42;20.36;73.05
65460;DHT22;52058;49.822;6.754;2023-07-31T07:53:09;20.49;72.58
65460;DHT22;52058;49.822;6.754;2023-07-31T07:55:35;20.63;72.15
65460;DHT22;52058;49.822;6.754;2023-07-31T07:58:03;20.70;71.99
65460;DHT22;52058;49.822;6.754;2023-07-31T08:00:30;20.88;71.58
65460;DHT22;52058;49.822;6.754;2023-07-31T08:02:56;21.12;70.86
65460;DHT22;52058;49.822;6.754;2023-07-31T08:05:23;21.08;71.08
65460;DHT22;52058;49.822;6.754;2023-07-31T08:07:50;21.15;70.85
65460;DHT22;52058;49.822;6.754;2023-07-31T08:10:17;21.08;71.20
65460;DHT22;52058;49.822;6.754;2023-07-31T08:12:43;20.88;71.08
65460;DHT22;52058;49.822;6.754;2023-07-31T08:15:11;20.90;71.06
65460;DHT22;52058;49.822;6.754;2023-07-31T08:17:38;21.01;71.08
65460;DHT22;52058;49.822;6.754;2023-07-31T08:20:06;21.24;70.66
65460;DHT22;52058;49.822;6.754;2023-07-31T08:22:32;21.03;70.90
65460;DHT22;52058;49.822;6.754;2023-07-31T08:24:59;21.23;70.54
65460;DHT22;52058;49.822;6.754;2023-07-31T08:27:26;20.96;70.79
65460;DHT22;52058;49.822;6.754;2023-07-31T08:29:52;21.14;70.87
65460;DHT22;52058;49.822;6.754;2023-07-31T08:32:20;21.20;70.30
65460;DHT22;52058;49.822;6.754;2023-07-31T08:34:48;21.27;69.90
65460;DHT22;52058;49.822;6.754;2023-07-31T08:37:15;21.37;70.19
65460;DHT22;52058;49.822;6.754;2023-07-31T08:39:42;21.44;69.59
65460;DHT22;52058;49.822;6.754;2023-07-31T08:42:08;21.65;69.82
65460;DHT22;52058;49.822;6.754;2023-07-31T08:44:36;21.65;68.99
65460;DHT22;52058;49.822;6.754;2023-07-31T08:47:04;21.54;69.13
65460;DHT22;52058;49.822;6.754;2023-07-31T08:49:33;21.75;68.94
65460;DHT22;52058;49.822;6.754;2023-07-31T08:52:01;21.67;69.11
65460;DHT22;52058;49.822;6.754;2023-07-31T08:54:29;21.73;68.62
65460;DHT22;52058;49.822;6.754;2023-07-31T08:56:57;22.00;68.31
65460;DHT22;52058;49.822;6.754;2023-07-31T08:59:25;22.00;68.78
65460;DHT22;52058;49.822;6.754;2023-07-31T09:01:55;21.81;68.62
65460;DHT22;52058;49.822;6.754;2023-07-31T09:04:22;21.83;68.84
65460;DHT22;52058;49.822;6.754;2023-07-31T09:06:55;21.38;69.15
65460;DHT22;52058;49.822;6.754;2023-07-31T09:09:23;21.56;69.09
65460;DHT22;52058;49.822;6.754;2023-07-31T09:11:50;21.75;69.41
65460;DHT22;52058;49.822;6.754;2023-07-31T09:14:17;22.00;68.95
65460;DHT22;52058;49.822;6.754;2023-07-31T09:16:54;22.17;67.99
65460;DHT22;52058;49.822;6.754;2023-07-31T09:19:29;22.03;67.99
65460;DHT22;52058;49.822;6.754;2023-07-31T09:21:57;21.92;67.96
65460;DHT22;52058;49.822;6.754;2023-07-31T09:24:27;22.27;67.61
65460;DHT22;52058;49.822;6.754;2023-07-31T09:26:56;22.71;66.92
65460;DHT22;52058;49.822;6.754;2023-07-31T09:29:23;22.58;67.13
65460;DHT22;52058;49.822;6.754;2023-07-31T09:31:50;22.82;67.30
65460;DHT22;52058;49.822;6.754;2023-07-31T09:34:17;22.75;66.70
65460;DHT22;52058;49.822;6.754;2023-07-31T09:36:45;22.74;66.44
65460;DHT22;52058;49.822;6.754;2023-07-31T09:39:14;23.08;65.71
65460;DHT22;52058;49.822;6.754;2023-07-31T09:41:44;22.55;67.02
65460;DHT22;52058;49.822;6.754;2023-07-31T09:44:11;22.30;67.34
65460;DHT22;52058;49.822;6.754;2023-07-31T09:46:38;22.40;67.28
65460;DHT22;52058;49.822;6.754;2023-07-31T09:49:09;22.54;67.28
65460;DHT22;52058;49.822;6.754;2023-07-31T09:51:37;22.41;67.51
65460;DHT22;52058;49.822;6.754;2023-07-31T09:54:09;22.50;67.03
65460;DHT22;52058;49.822;6.754;2023-07-31T09:56:41;22.53;66.06
65460;DHT22;52058;49.822;6.754;2023-07-31T09:59:10;22.27;66.42
65460;DHT22;52058;49.822;6.754;2023-07-31T10:01:38;22.21;66.22
65460;DHT22;52058;49.822;6.754;2023-07-31T10:04:05;22.24;66.55
65460;DHT22;52058;49.822;6.754;2023-07-31T10:06:34;22.04;65.98
65460;DHT22;52058;49.822;6.754;2023-07-31T10:09:01;22.18;65.84
65460;DHT22;52058;49.822;6.754;2023-07-31T10:11:30;22.17;65.51
65460;DHT22;52058;49.822;6.754;2023-07-31T10:14:01;22.18;65.63
65460;DHT22;52058;49.822;6.754;2023-07-31T10:16:28;21.99;65.67
65460;DHT22;52058;49.822;6.754;2023-07-31T10:18:56;22.20;65.88
65460;DHT22;52058;49.822;6.754;2023-07-31T10:21:23;22.34;65.67
65460;DHT22;52058;49.822;6.754;2023-07-31T10:23:50;22.51;65.74
65460;DHT22;52058;49.822;6.754;2023-07-31T10:26:19;22.54;65.26
65460;DHT22;52058;49.822;6.754;2023-07-31T10:28:46;22.65;65.82
65460;DHT22;52058;49.822;6.754;2023-07-31T10:31:15;22.91;65.09
65460;DHT22;52058;49.822;6.754;2023-07-31T10:33:42;22.72;65.49
65460;DHT22;52058;49.822;6.754;2023-07-31T10:36:12;22.68;65.91
65460;DHT22;52058;49.822;6.754;2023-07-31T10:38:39;22.40;67.05
65460;DHT22;52058;49.822;6.754;2023-07-31T10:41:08;22.31;66.99
65460;DHT22;52058;49.822;6.754;2023-07-31T10:43:36;22.27;67.21
65460;DHT22;52058;49.822;6.754;2023-07-31T10:46:06;22.23;67.45
65460;DHT22;52058;49.822;6.754;2023-07-31T10:48:36;21.78;68.20
65460;DHT22;52058;49.822;6.754;2023-07-31T10:51:08;21.88;68.00
65460;DHT22;52058;49.822;6.754;2023-07-31T10:53:36;21.63;67.66
65460;DHT22;52058;49.822;6.754;2023-07-31T10:56:04;21.79;67.88
65460;DHT22;52058;49.822;6.754;2023-07-31T10:58:31;22.12;66.86
65460;DHT22;52058;49.822;6.754;2023-07-31T11:01:00;22.06;66.12
65460;DHT22;52058;49.822;6.754;2023-07-31T11:03:42;22.50;65.64
65460;DHT22;52058;49.822;6.754;2023-07-31T11:06:09;22.74;64.59
65460;DHT22;52058;49.822;6.754;2023-07-31T11:08:41;23.11;64.20
65460;DHT22;52058;49.822;6.754;2023-07-31T11:11:09;23.46;63.90
65460;DHT22;52058;49.822;6.754;2023-07-31T11:13:41;23.22;63.47
65460;DHT22;52058;49.822;6.754;2023-07-31T11:16:09;23.34;63.33
65460;DHT22;52058;49.822;6.754;2023-07-31T11:18:35;23.16;63.65
65460;DHT22;52058;49.822;6.754;2023-07-31T11:21:04;23.13;63.87
65460;DHT22;52058;49.822;6.754;2023-07-31T11:23:30;22.99;64.17
65460;DHT22;52058;49.822;6.754;2023-07-31T11:25:59;22.54;64.76
65460;DHT22;52058;49.822;6.754;2023-07-31T11:28:31;22.61;64.83
65460;DHT22;52058;49.822;6.754;2023-07-31T11:30:58;22.51;66.09
65460;DHT22;52058;49.822;6.754;2023-07-31T11:33:25;22.14;66.59
65460;DHT22;52058;49.822;6.754;2023-07-31T11:35:51;21.96;67.14
65460;DHT22;52058;49.822;6.754;2023-07-31T11:38:23;21.97;67.85
65460;DHT22;52058;49.822;6.754;2023-07-31T11:40:51;21.52;68.47
65460;DHT22;52058;49.822;6.754;2023-07-31T11:43:18;21.41;69.40
65460;DHT22;52058;49.822;6.754;2023-07-31T11:45:46;21.30;69.45
65460;DHT22;52058;49.822;6.754;2023-07-31T11:48:18;21.18;69.98
65460;DHT22;52058;49.822;6.754;2023-07-31T11:50:45;21.17;70.39
65460;DHT22;52058;49.822;6.754;2023-07-31T11:53:13;21.20;70.50
65460;DHT22;52058;49.822;6.754;2023-07-31T11:55:41;21.24;70.65
65460;DHT22;52058;49.822;6.754;2023-07-31T11:58:08;21.11;70.94
65460;DHT22;52058;49.822;6.754;2023-07-31T12:00:35;21.08;71.12
65460;DHT22;52058;49.822;6.754;2023-07-31T12:03:02;21.14;71.43
65460;DHT22;52058;49.822;6.754;2023-07-31T12:05:29;21.39;71.02
65460;DHT22;52058;49.822;6.754;2023-07-31T12:07:56;21.17;71.09
65460;DHT22;52058;49.822;6.754;2023-07-31T12:10:25;21.03;71.80
65460;DHT22;52058;49.822;6.754;2023-07-31T12:13:04;20.97;72.05
65460;DHT22;52058;49.822;6.754;2023-07-31T12:15:37;20.65;72.62
65460;DHT22;52058;49.822;6.754;2023-07-31T12:18:04;20.65;72.80
65460;DHT22;52058;49.822;6.754;2023-07-31T12:20:32;20.72;72.88
65460;DHT22;52058;49.822;6.754;2023-07-31T12:22:59;20.72;72.96
65460;DHT22;52058;49.822;6.754;2023-07-31T12:25:30;20.60;72.86
65460;DHT22;52058;49.822;6.754;2023-07-31T12:27:56;20.52;75.44
65460;DHT22;52058;49.822;6.754;2023-07-31T12:30:28;20.57;76.21
65460;DHT22;52058;49.822;6.754;2023-07-31T12:32:55;20.38;77.27
65460;DHT22;52058;49.822;6.754;2023-07-31T12:35:21;20.12;78.50
65460;DHT22;52058;49.822;6.754;2023-07-31T12:37:48;20.25;80.10
65460;DHT22;52058;49.822;6.754;2023-07-31T12:40:15;20.29;78.06
65460;DHT22;52058;49.822;6.754;2023-07-31T12:42:41;20.18;78.68
65460;DHT22;52058;49.822;6.754;2023-07-31T12:45:08;20.28;80.04
65460;DHT22;52058;49.822;6.754;2023-07-31T12:47:36;20.12;79.71
65460;DHT22;52058;49.822;6.754;2023-07-31T12:50:03;19.91;80.35
65460;DHT22;52058;49.822;6.754;2023-07-31T12:52:30;19.97;80.66
65460;DHT22;52058;49.822;6.754;2023-07-31T12:54:56;19.78;80.33
65460;DHT22;52058;49.822;6.754;2023-07-31T12:57:23;19.77;80.68
65460;DHT22;52058;49.822;6.754;2023-07-31T12:59:50;20.01;81.02
65460;DHT22;52058;49.822;6.754;2023-07-31T13:02:16;19.99;80.65
65460;DHT22;52058;49.822;6.754;2023-07-31T13:04:44;20.04;80.29
65460;DHT22;52058;49.822;6.754;2023-07-31T13:07:11;20.11;81.10
65460;DHT22;52058;49.822;6.754;2023-07-31T13:09:37;20.38;80.66
65460;DHT22;52058;49.822;6.754;2023-07-31T13:12:04;20.49;80.63
65460;DHT22;52058;49.822;6.754;2023-07-31T13:14:31;20.15;80.40
65460;DHT22;52058;49.822;6.754;2023-07-31T13:16:58;19.60;81.74
65460;DHT22;52058;49.822;6.754;2023-07-31T13:19:24;19.19;83.14
65460;DHT22;52058;49.822;6.754;2023-07-31T13:21:53;19.06;84.07
65460;DHT22;52058;49.822;6.754;2023-07-31T13:24:19;19.29;84.11
65460;DHT22;52058;49.822;6.754;2023-07-31T13:26:46;19.64;83.74
65460;DHT22;52058;49.822;6.754;2023-07-31T13:29:12;19.97;82.11
65460;DHT22;52058;49.822;6.754;2023-07-31T13:31:39;20.57;80.10
65460;DHT22;52058;49.822;6.754;2023-07-31T13:34:05;21.12;78.73
65460;DHT22;52058;49.822;6.754;2023-07-31T13:36:32;21.66;76.28
65460;DHT22;52058;49.822;6.754;2023-07-31T13:39:00;21.90;75.71
65460;DHT22;52058;49.822;6.754;2023-07-31T13:41:27;21.65;74.70
65460;DHT22;52058;49.822;6.754;2023-07-31T13:43:53;22.09;74.04
65460;DHT22;52058;49.822;6.754;2023-07-31T13:46:20;22.10;74.10
65460;DHT22;52058;49.822;6.754;2023-07-31T13:48:46;22.07;73.65
65460;DHT22;52058;49.822;6.754;2023-07-31T13:51:13;21.72;73.55
65460;DHT22;52058;49.822;6.754;2023-07-31T13:53:40;21.42;74.63
65460;DHT22;52058;49.822;6.754;2023-07-31T13:56:08;21.48;74.13
65460;DHT22;52058;49.822;6.754;2023-07-31T13:58:34;21.59;73.26
65460;DHT22;52058;49.822;6.754;2023-07-31T14:01:01;21.45;73.46
65460;DHT22;52058;49.822;6.754;2023-07-31T14:03:28;21.00;74.84
65460;DHT22;52058;49.822;6.754;2023-07-31T14:05:55;20.69;75.25
65460;DHT22;52058;49.822;6.754;2023-07-31T14:08:21;20.35;75.77
65460;DHT22;52058;49.822;6.754;2023-07-31T14:10:48;20.18;76.44
65460;DHT22;52058;49.822;6.754;2023-07-31T14:13:16;19.94;76.73
65460;DHT22;52058;49.822;6.754;2023-07-31T14:15:42;19.88;77.16
65460;DHT22;52058;49.822;6.754;2023-07-31T14:18:09;19.87;77.57
65460;DHT22;52058;49.822;6.754;2023-07-31T14:20:36;19.87;77.59
65460;DHT22;52058;49.822;6.754;2023-07-31T14:23:02;19.88;77.64
65460;DHT22;52058;49.822;6.754;2023-07-31T14:25:29;19.84;77.37
65460;DHT22;52058;49.822;6.754;2023-07-31T14:27:56;19.82;77.82
65460;DHT22;52058;49.822;6.754;2023-07-31T14:30:24;19.89;78.73
65460;DHT22;52058;49.822;6.754;2023-07-31T14:32:50;19.88;79.48
65460;DHT22;52058;49.822;6.754;2023-07-31T14:35:17;19.82;80.23
65460;DHT22;52058;49.822;6.754;2023-07-31T14:37:44;19.91;80.72
65460;DHT22;52058;49.822;6.754;2023-07-31T14:40:12;19.82;80.86
65460;DHT22;52058;49.822;6.754;2023-07-31T14:42:39;19.81;82.48
65460;DHT22;52058;49.822;6.754;2023-07-31T14:45:07;19.82;82.56
65460;DHT22;52058;49.822;6.754;2023-07-31T14:47:36;19.87;82.56
65460;DHT22;52058;49.822;6.754;2023-07-31T14:50:03;19.81;82.15
65460;DHT22;52058;49.822;6.754;2023-07-31T14:52:30;19.71;83.05
65460;DHT22;52058;49.822;6.754;2023-07-31T14:54:57;19.60;83.19
65460;DHT22;52058;49.822;6.754;2023-07-31T14:57:24;19.77;83.53
65460;DHT22;52058;49.822;6.754;2023-07-31T14:59:51;19.92;82.47
65460;DHT22;52058;49.822;6.754;2023-07-31T15:02:17;20.24;81.87
65460;DHT22;52058;49.822;6.754;2023-07-31T15:04:45;20.40;80.84
65460;DHT22;52058;49.822;6.754;2023-07-31T15:07:12;20.40;82.09
65460;DHT22;52058;49.822;6.754;2023-07-31T15:09:39;20.35;80.88
65460;DHT22;52058;49.822;6.754;2023-07-31T15:12:06;20.14;82.45
65460;DHT22;52058;49.822;6.754;2023-07-31T15:14:33;20.09;83.21
65460;DHT22;52058;49.822;6.754;2023-07-31T15:17:00;20.09;83.61
65460;DHT22;52058;49.822;6.754;2023-07-31T15:19:32;20.02;82.06
65460;DHT22;52058;49.822;6.754;2023-07-31T15:22:01;19.99;82.30
65460;DHT22;52058;49.822;6.754;2023-07-31T15:24:28;19.92;82.75
65460;DHT22;52058;49.822;6.754;2023-07-31T15:26:54;19.81;82.80
65460;DHT22;52058;49.822;6.754;2023-07-31T15:29:21;19.80;84.45
65460;DHT22;52058;49.822;6.754;2023-07-31T15:31:48;19.78;84.81